createdAt,value
2019-05-18T00:01:59.280Z,13.23
2019-05-18T00:04:31.852Z,12.73
2019-05-18T00:07:04.477Z,15.37
2019-05-18T00:09:38.437Z,12.73
2019-05-18T00:12:11.789Z,14.27
2019-05-18T00:14:43.213Z,14.00
2019-05-18T00:17:24.998Z,14.37
2019-05-18T00:19:48.073Z,13.10
2019-05-18T00:22:20.576Z,14.67
2019-05-18T00:24:52.279Z,12.50
2019-05-18T00:27:24.239Z,14.13
2019-05-18T00:29:54.643Z,11.90
2019-05-18T00:32:29.004Z,14.33
2019-05-18T00:35:01.378Z,15.40
2019-05-18T00:37:34.100Z,14.20
2019-05-18T00:40:09.181Z,14.90
2019-05-18T00:42:40.753Z,12.37
2019-05-18T00:45:13.727Z,16.20
2019-05-18T00:47:46.386Z,14.77
2019-05-18T00:50:19.921Z,13.33
2019-05-18T00:52:51.464Z,16.27
2019-05-18T00:55:23.766Z,15.53
2019-05-18T00:57:55.562Z,15.43
2019-05-18T01:00:28.286Z,15.57
2019-05-18T01:03:01.031Z,12.90
2019-05-18T01:05:37.870Z,14.30
2019-05-18T01:08:09.532Z,13.57
2019-05-18T01:10:39.874Z,14.67
2019-05-18T01:13:11.951Z,14.67
2019-05-18T01:15:43.009Z,15.27
2019-05-18T01:18:15.595Z,15.50
2019-05-18T01:20:48.025Z,15.30
2019-05-18T01:23:20.444Z,16.00
2019-05-18T01:25:54.709Z,15.10
2019-05-18T01:28:27.332Z,12.67
2019-05-18T01:30:59.714Z,14.97
2019-05-18T01:33:32.132Z,15.77
2019-05-18T01:36:03.854Z,15.23
2019-05-18T01:38:37.490Z,15.23
2019-05-18T01:41:10.225Z,15.80
2019-05-18T01:43:41.247Z,15.00
2019-05-18T01:46:13.963Z,15.47
2019-05-18T01:48:46.366Z,14.43
2019-05-18T01:51:19.056Z,12.90
2019-05-18T01:53:50.902Z,15.93
2019-05-18T01:56:22.906Z,14.23
2019-05-18T01:58:54.431Z,12.60
2019-05-18T02:01:26.849Z,15.50
2019-05-18T02:03:59.618Z,15.93
2019-05-18T02:06:32.123Z,16.23
2019-05-18T02:09:05.657Z,12.83
2019-05-18T02:11:37.957Z,16.40
2019-05-18T02:14:10.446Z,16.83
2019-05-18T02:16:43.036Z,16.10
2019-05-18T02:19:15.539Z,17.00
2019-05-18T02:21:46.890Z,13.83
2019-05-18T02:24:18.449Z,16.60
2019-05-18T02:26:50.852Z,16.40
2019-05-18T02:29:23.642Z,13.87
2019-05-18T02:31:55.000Z,16.57
2019-05-18T02:34:29.285Z,15.23
2019-05-18T02:37:03.751Z,13.37
2019-05-18T02:39:36.157Z,16.03
2019-05-18T02:42:08.005Z,15.57
2019-05-18T02:44:40.381Z,14.93
2019-05-18T02:47:12.146Z,12.97
2019-05-18T02:49:43.682Z,15.20
2019-05-18T02:52:16.021Z,15.90
2019-05-18T02:54:46.962Z,12.90
2019-05-18T02:57:18.662Z,15.80
2019-05-18T02:59:54.220Z,16.10
2019-05-18T03:02:27.526Z,16.37
2019-05-18T03:04:59.858Z,15.57
2019-05-18T03:07:32.499Z,15.97
2019-05-18T03:10:06.812Z,14.53
2019-05-18T03:12:38.783Z,16.50
2019-05-18T03:15:09.720Z,14.00
2019-05-18T03:17:42.533Z,15.53
2019-05-18T03:20:14.029Z,16.20
2019-05-18T03:22:46.341Z,15.90
2019-05-18T03:25:18.330Z,16.40
2019-05-18T03:27:51.939Z,16.47
2019-05-18T03:30:25.629Z,13.77
2019-05-18T03:32:59.669Z,16.27
2019-05-18T03:35:34.284Z,15.70
2019-05-18T03:38:06.224Z,15.43
2019-05-18T03:40:39.139Z,14.33
2019-05-18T03:43:12.803Z,16.07
2019-05-18T03:45:45.571Z,15.13
2019-05-18T03:48:17.966Z,14.03
2019-05-18T03:50:49.438Z,15.50
2019-05-18T03:53:22.118Z,15.47
2019-05-18T03:55:55.598Z,16.07
2019-05-18T03:58:28.179Z,15.90
2019-05-18T04:01:01.268Z,12.73
2019-05-18T04:03:33.353Z,15.00
2019-05-18T04:06:05.885Z,14.50
2019-05-18T04:08:40.355Z,13.47
2019-05-18T04:11:12.226Z,14.97
2019-05-18T04:13:43.981Z,14.93
2019-05-18T04:16:16.466Z,14.63
2019-05-18T04:18:48.223Z,13.17
2019-05-18T04:21:20.642Z,14.23
2019-05-18T04:23:53.572Z,12.83
2019-05-18T04:26:26.004Z,14.17
2019-05-18T04:28:58.306Z,12.00
2019-05-18T04:31:32.468Z,14.77
2019-05-18T04:34:04.267Z,12.60
2019-05-18T04:36:38.837Z,14.20
2019-05-18T04:39:12.409Z,15.17
2019-05-18T04:41:44.741Z,13.13
2019-05-18T04:44:18.619Z,14.73
2019-05-18T04:46:50.172Z,13.47
2019-05-18T04:49:21.920Z,15.87
2019-05-18T04:51:53.467Z,15.27
2019-05-18T04:54:24.950Z,12.60
2019-05-18T04:56:57.158Z,15.23
2019-05-18T04:59:29.794Z,13.40
2019-05-18T05:02:02.603Z,15.40
2019-05-18T05:04:35.530Z,13.23
2019-05-18T05:07:08.253Z,15.20
2019-05-18T05:09:41.143Z,15.13
2019-05-18T05:12:12.731Z,15.77
2019-05-18T05:14:46.798Z,14.67
2019-05-18T05:17:18.214Z,13.17
2019-05-18T05:19:50.827Z,15.40
2019-05-18T05:22:23.287Z,15.70
2019-05-18T05:24:55.894Z,14.70
2019-05-18T05:27:27.598Z,15.63
2019-05-18T05:29:59.824Z,15.20
2019-05-18T05:32:32.534Z,14.67
2019-05-18T05:35:07.724Z,15.20
2019-05-18T05:37:46.132Z,14.47
2019-05-18T05:40:19.777Z,13.93
2019-05-18T05:42:53.580Z,12.80
2019-05-18T05:45:25.167Z,15.20
2019-05-18T05:47:56.625Z,13.97
2019-05-18T05:50:35.780Z,14.63
2019-05-18T05:53:03.509Z,14.40
2019-05-18T05:55:34.939Z,14.37
2019-05-18T05:58:07.629Z,14.90
2019-05-18T06:00:39.524Z,15.17
2019-05-18T06:03:13.658Z,16.47
2019-05-18T06:05:47.757Z,14.13
2019-05-18T06:08:21.670Z,15.33
2019-05-18T06:10:54.102Z,15.40
2019-05-18T06:13:25.551Z,15.40
2019-05-18T06:15:56.981Z,14.93
2019-05-18T06:18:31.376Z,15.40
2019-05-18T06:21:04.176Z,16.20
2019-05-18T06:23:38.756Z,14.97
2019-05-18T06:26:11.358Z,15.90
2019-05-18T06:28:43.205Z,16.73
2019-05-18T06:31:15.993Z,16.50
2019-05-18T06:33:48.702Z,14.70
2019-05-18T06:36:21.106Z,14.93
2019-05-18T06:38:53.626Z,14.97
2019-05-18T06:41:26.393Z,13.30
2019-05-18T06:43:58.533Z,14.50
2019-05-18T06:46:31.227Z,14.43
2019-05-18T06:49:02.945Z,15.13
2019-05-18T06:51:34.818Z,15.93
2019-05-18T06:54:09.632Z,16.27
2019-05-18T06:56:43.919Z,15.67
2019-05-18T06:59:18.191Z,15.17
2019-05-18T07:01:50.042Z,14.43
2019-05-18T07:04:22.786Z,15.87
2019-05-18T07:06:54.682Z,14.77
2019-05-18T07:09:30.051Z,13.90
2019-05-18T07:12:01.773Z,15.43
2019-05-18T07:14:53.442Z,15.37
2019-05-18T07:17:24.846Z,15.07
2019-05-18T07:19:57.138Z,16.10
2019-05-18T07:22:29.627Z,15.50
2019-05-18T07:25:01.084Z,15.60
2019-05-18T07:27:32.533Z,14.83
2019-05-18T07:30:09.276Z,15.60
2019-05-18T07:32:40.810Z,15.23
2019-05-18T07:35:12.018Z,15.27
2019-05-18T07:37:43.913Z,16.03
2019-05-18T07:40:16.565Z,16.23
2019-05-18T07:42:48.339Z,14.07
2019-05-18T07:45:21.055Z,15.57
2019-05-18T07:47:53.751Z,15.50
2019-05-18T07:50:26.299Z,15.13
2019-05-18T07:52:57.711Z,15.80
2019-05-18T07:55:31.073Z,14.47
2019-05-18T07:58:04.321Z,14.80
2019-05-18T08:00:36.422Z,14.97
2019-05-18T08:03:07.863Z,15.20
2019-05-18T08:05:42.014Z,14.73
2019-05-18T08:08:14.857Z,13.90
2019-05-18T08:10:47.659Z,13.77
2019-05-18T08:13:19.598Z,11.60
2019-05-18T08:15:52.014Z,10.13
2019-05-18T08:18:23.793Z,9.30
2019-05-18T08:20:56.591Z,9.57
2019-05-18T08:23:28.571Z,9.70
2019-05-18T08:26:01.039Z,9.70
2019-05-18T08:28:32.396Z,9.43
2019-05-18T08:31:05.309Z,9.83
2019-05-18T08:33:37.802Z,9.43
2019-05-18T08:36:10.479Z,9.53
2019-05-18T08:38:42.917Z,18.20
2019-05-18T08:41:13.791Z,37.17
2019-05-18T08:43:46.409Z,12.43
2019-05-18T08:46:19.201Z,10.10
2019-05-18T08:48:53.635Z,10.63
2019-05-18T08:51:26.317Z,10.10
2019-05-18T08:53:59.402Z,10.20
2019-05-18T08:56:30.953Z,10.20
2019-05-18T08:59:02.329Z,10.70
2019-05-18T09:01:34.970Z,11.00
2019-05-18T09:04:08.896Z,10.37
2019-05-18T09:06:42.929Z,11.47
2019-05-18T09:09:14.790Z,10.70
2019-05-18T09:11:47.532Z,12.87
2019-05-18T09:14:21.562Z,11.83
2019-05-18T09:16:55.188Z,10.87
2019-05-18T09:19:27.901Z,11.73
2019-05-18T09:21:59.697Z,11.70
2019-05-18T09:24:32.729Z,11.80
2019-05-18T09:27:04.523Z,12.13
2019-05-18T09:29:36.995Z,11.97
2019-05-18T09:32:10.624Z,12.07
2019-05-18T09:34:44.805Z,12.77
2019-05-18T09:37:17.565Z,12.90
2019-05-18T09:39:51.158Z,12.17
2019-05-18T09:42:25.096Z,13.00
2019-05-18T09:44:59.119Z,12.33
2019-05-18T09:47:31.666Z,12.00
2019-05-18T09:50:03.125Z,12.23
2019-05-18T09:52:44.903Z,12.27
2019-05-18T09:55:10.509Z,12.83
2019-05-18T09:57:44.683Z,12.33
2019-05-18T10:00:17.066Z,11.40
2019-05-18T10:02:50.033Z,11.33
2019-05-18T10:05:22.990Z,11.67
2019-05-18T10:07:54.938Z,11.33
2019-05-18T10:10:26.917Z,11.40
2019-05-18T10:12:59.217Z,12.67
2019-05-18T10:15:33.614Z,12.00
2019-05-18T10:18:05.222Z,11.10
2019-05-18T10:20:36.714Z,11.57
2019-05-18T10:23:12.704Z,11.67
2019-05-18T10:25:42.963Z,12.10
2019-05-18T10:28:16.138Z,12.00
2019-05-18T10:30:47.977Z,11.57
2019-05-18T10:33:21.443Z,10.60
2019-05-18T10:35:54.045Z,10.60
2019-05-18T10:38:25.910Z,11.17
2019-05-18T10:41:01.352Z,11.37
2019-05-18T10:43:37.196Z,11.50
2019-05-18T10:46:09.051Z,10.90
2019-05-18T10:48:39.859Z,11.50
2019-05-18T10:51:13.870Z,10.80
2019-05-18T10:53:46.206Z,9.93
2019-05-18T10:56:19.850Z,10.27
2019-05-18T10:58:53.625Z,9.80
2019-05-18T11:01:25.153Z,10.60
2019-05-18T11:03:57.841Z,11.07
2019-05-18T11:06:29.407Z,10.70
2019-05-18T11:09:04.818Z,10.77
2019-05-18T11:11:37.321Z,10.30
2019-05-18T11:14:10.059Z,9.90
2019-05-18T11:16:42.859Z,10.43
2019-05-18T11:19:14.342Z,9.93
2019-05-18T11:21:46.923Z,8.90
2019-05-18T11:24:18.778Z,9.13
2019-05-18T11:26:51.360Z,10.23
2019-05-18T11:29:25.513Z,7.53
2019-05-18T11:31:57.371Z,7.40
2019-05-18T11:34:30.056Z,7.90
2019-05-18T11:37:04.703Z,7.43
2019-05-18T11:39:39.291Z,7.70
2019-05-18T11:42:11.024Z,6.77
2019-05-18T11:44:43.444Z,6.73
2019-05-18T11:47:16.087Z,7.10
2019-05-18T11:49:49.136Z,7.07
2019-05-18T11:52:21.023Z,6.50
2019-05-18T11:54:52.561Z,6.83
2019-05-18T11:57:24.018Z,8.30
2019-05-18T11:59:57.146Z,7.10
2019-05-18T12:02:30.453Z,6.57
2019-05-18T12:05:03.185Z,7.10
2019-05-18T12:07:34.238Z,7.27
2019-05-18T12:10:09.496Z,6.53
2019-05-18T12:12:41.932Z,5.87
2019-05-18T12:15:14.982Z,6.40
2019-05-18T12:17:47.406Z,6.97
2019-05-18T12:20:20.674Z,6.90
2019-05-18T12:22:53.649Z,5.70
2019-05-18T12:25:24.933Z,7.17
2019-05-18T12:27:57.838Z,6.77
2019-05-18T12:30:32.010Z,6.50
2019-05-18T12:33:04.354Z,6.47
2019-05-18T12:35:38.547Z,5.90
2019-05-18T12:38:13.033Z,4.70
2019-05-18T12:40:45.342Z,5.30
2019-05-18T12:43:17.054Z,5.63
2019-05-18T12:45:48.927Z,5.33
2019-05-18T12:48:24.172Z,5.03
2019-05-18T12:50:55.602Z,4.90
2019-05-18T12:53:27.862Z,4.93
2019-05-18T12:56:00.193Z,4.73
2019-05-18T12:58:31.614Z,4.30
2019-05-18T13:01:06.938Z,5.07
2019-05-18T13:03:39.310Z,4.80
2019-05-18T13:06:12.033Z,4.20
2019-05-18T13:08:43.883Z,3.50
2019-05-18T13:11:16.711Z,3.97
2019-05-18T13:13:50.968Z,3.87
2019-05-18T13:16:25.102Z,4.40
2019-05-18T13:18:59.330Z,4.60
2019-05-18T13:21:32.806Z,3.70
2019-05-18T13:24:05.848Z,4.13
2019-05-18T13:26:38.298Z,4.33
2019-05-18T13:29:16.493Z,4.53
2019-05-18T13:31:49.270Z,4.90
2019-05-18T13:34:23.386Z,4.77
2019-05-18T13:36:56.357Z,4.80
2019-05-18T13:39:30.405Z,5.13
2019-05-18T13:42:02.286Z,3.90
2019-05-18T13:44:34.162Z,4.70
2019-05-18T13:47:06.923Z,4.03
2019-05-18T13:49:39.495Z,4.10
2019-05-18T13:52:10.925Z,4.00
2019-05-18T13:54:43.308Z,3.57
2019-05-18T13:57:17.070Z,3.90
2019-05-18T13:59:48.808Z,4.50
2019-05-18T14:02:21.241Z,3.60
2019-05-18T14:04:53.607Z,4.10
2019-05-18T14:07:24.857Z,4.73
2019-05-18T14:09:56.393Z,3.47
2019-05-18T14:12:28.154Z,4.63
2019-05-18T14:15:00.807Z,5.00
2019-05-18T14:17:34.961Z,4.23
2019-05-18T14:20:06.525Z,4.87
2019-05-18T14:22:38.922Z,4.93
2019-05-18T14:25:19.300Z,4.77
2019-05-18T14:27:43.748Z,3.93
2019-05-18T14:30:16.758Z,4.27
2019-05-18T14:32:49.560Z,4.83
2019-05-18T14:35:21.571Z,4.97
2019-05-18T14:37:53.243Z,4.67
2019-05-18T14:40:26.434Z,5.00
2019-05-18T14:42:58.720Z,5.00
2019-05-18T14:45:31.213Z,4.40
2019-05-18T14:48:03.941Z,4.50
2019-05-18T14:50:36.410Z,4.27
2019-05-18T14:53:09.121Z,4.40
2019-05-18T14:55:43.382Z,4.47
2019-05-18T14:58:15.896Z,4.20
2019-05-18T15:00:48.208Z,4.37
2019-05-18T15:03:20.452Z,3.93
2019-05-18T15:05:51.928Z,4.43
2019-05-18T15:08:23.314Z,4.00
2019-05-18T15:10:55.947Z,4.73
2019-05-18T15:13:28.677Z,4.13
2019-05-18T15:16:01.078Z,4.37
2019-05-18T15:18:35.223Z,4.50
2019-05-18T15:21:07.850Z,4.33
2019-05-18T15:23:39.258Z,4.83
2019-05-18T15:26:11.886Z,4.10
2019-05-18T15:28:43.730Z,4.07
2019-05-18T15:31:16.750Z,4.17
2019-05-18T15:33:48.692Z,4.00
2019-05-18T15:36:21.229Z,3.70
2019-05-18T15:38:53.919Z,3.53
2019-05-18T15:41:27.168Z,3.47
2019-05-18T15:43:58.670Z,2.80
2019-05-18T15:46:30.443Z,3.13
2019-05-18T15:49:03.058Z,3.40
2019-05-18T15:51:35.461Z,3.77
2019-05-18T15:54:07.885Z,5.27
2019-05-18T15:56:44.145Z,5.17
2019-05-18T15:59:14.610Z,4.63
2019-05-18T16:01:46.396Z,5.10
2019-05-18T16:04:19.092Z,7.03
2019-05-18T16:06:51.597Z,4.67
2019-05-18T16:09:25.235Z,6.37
2019-05-18T16:11:59.408Z,5.00
2019-05-18T16:14:32.169Z,4.90
2019-05-18T16:17:04.002Z,5.33
2019-05-18T16:19:38.154Z,5.17
2019-05-18T16:22:12.109Z,4.77
2019-05-18T16:24:46.285Z,4.87
2019-05-18T16:27:18.771Z,5.03
2019-05-18T16:29:51.052Z,4.67
2019-05-18T16:32:22.778Z,5.20
2019-05-18T16:34:55.898Z,5.80
2019-05-18T16:37:28.948Z,6.13
2019-05-18T16:40:00.896Z,5.23
2019-05-18T16:42:33.385Z,5.63
2019-05-18T16:45:08.640Z,6.30
2019-05-18T16:47:41.242Z,5.60
2019-05-18T16:50:14.214Z,5.83
2019-05-18T16:52:45.971Z,5.80
2019-05-18T16:55:18.474Z,5.47
2019-05-18T16:57:50.151Z,5.20
2019-05-18T17:00:23.070Z,5.30
2019-05-18T17:02:55.958Z,6.00
2019-05-18T17:05:27.466Z,6.00
2019-05-18T17:08:00.024Z,7.13
2019-05-18T17:10:32.639Z,7.30
2019-05-18T17:13:04.990Z,6.70
2019-05-18T17:15:37.610Z,7.53
2019-05-18T17:18:10.232Z,7.97
2019-05-18T17:20:43.311Z,7.30
2019-05-18T17:23:17.565Z,6.67
2019-05-18T17:25:49.444Z,6.90
2019-05-18T17:28:21.847Z,7.10
2019-05-18T17:30:54.245Z,7.27
2019-05-18T17:33:25.687Z,7.10
2019-05-18T17:36:00.588Z,8.17
2019-05-18T17:38:32.467Z,7.63
2019-05-18T17:41:05.354Z,7.07
2019-05-18T17:43:38.157Z,7.77
2019-05-18T17:46:11.001Z,7.70
2019-05-18T17:48:43.401Z,7.67
2019-05-18T17:51:16.735Z,7.57
2019-05-18T17:53:49.221Z,7.33
2019-05-18T17:56:22.454Z,7.77
2019-05-18T17:58:56.682Z,7.40
2019-05-18T18:01:29.518Z,6.97
2019-05-18T18:04:01.079Z,7.83
2019-05-18T18:06:34.481Z,7.90
2019-05-18T18:09:09.227Z,8.77
2019-05-18T18:11:41.141Z,8.80
2019-05-18T18:14:12.728Z,7.50
2019-05-18T18:16:44.458Z,8.10
2019-05-18T18:19:17.175Z,7.83
2019-05-18T18:21:48.733Z,8.20
2019-05-18T18:24:21.427Z,8.00
2019-05-18T18:26:53.914Z,8.23
2019-05-18T18:29:25.782Z,8.50
2019-05-18T18:31:59.163Z,9.47
2019-05-18T18:34:31.846Z,10.10
2019-05-18T18:37:05.887Z,10.20
2019-05-18T18:39:38.387Z,9.63
2019-05-18T18:42:11.074Z,9.10
2019-05-18T18:44:45.387Z,9.40
2019-05-18T18:47:19.428Z,9.67
2019-05-18T18:49:52.057Z,9.57
2019-05-18T18:52:24.438Z,9.90
2019-05-18T18:54:57.146Z,12.03
2019-05-18T18:57:40.693Z,10.37
2019-05-18T19:00:05.944Z,10.53
2019-05-18T19:02:37.453Z,10.67
2019-05-18T19:05:08.769Z,11.50
2019-05-18T19:07:40.647Z,11.70
2019-05-18T19:10:12.289Z,12.13
2019-05-18T19:12:45.120Z,12.43
2019-05-18T19:15:18.030Z,11.97
2019-05-18T19:17:50.635Z,12.43
2019-05-18T19:20:22.944Z,13.67
2019-05-18T19:22:56.531Z,13.57
2019-05-18T19:25:30.808Z,13.87
2019-05-18T19:28:06.091Z,13.60
2019-05-18T19:30:37.815Z,13.17
2019-05-18T19:33:10.466Z,13.30
2019-05-18T19:35:43.273Z,12.80
2019-05-18T19:38:14.922Z,12.73
2019-05-18T19:40:46.873Z,13.40
2019-05-18T19:43:19.393Z,14.90
2019-05-18T19:45:52.579Z,15.40
2019-05-18T19:48:24.944Z,16.23
2019-05-18T19:50:58.467Z,15.97
2019-05-18T19:53:31.299Z,16.57
2019-05-18T19:56:02.963Z,17.40
2019-05-18T19:58:34.735Z,18.87
2019-05-18T20:01:07.495Z,18.57
2019-05-18T20:03:41.810Z,19.77
2019-05-18T20:06:13.247Z,18.90
2019-05-18T20:08:44.695Z,19.90
2019-05-18T20:11:17.292Z,21.00
2019-05-18T20:13:49.149Z,21.37
2019-05-18T20:16:20.758Z,21.60
2019-05-18T20:18:52.563Z,21.57
2019-05-18T20:21:24.426Z,22.03
2019-05-18T20:23:57.543Z,19.00
2019-05-18T20:26:30.353Z,21.47
2019-05-18T20:29:02.261Z,24.47
2019-05-18T20:31:35.171Z,25.83
2019-05-18T20:34:07.673Z,28.63
2019-05-18T20:36:40.382Z,26.67
2019-05-18T20:39:13.194Z,24.83
2019-05-18T20:41:46.832Z,25.40
2019-05-18T20:44:18.282Z,24.10
2019-05-18T20:46:52.334Z,25.97
2019-05-18T20:49:25.534Z,25.97
2019-05-18T20:51:56.915Z,24.77
2019-05-18T20:54:29.214Z,23.93
2019-05-18T20:57:02.466Z,24.53
2019-05-18T20:59:37.207Z,24.83
2019-05-18T21:02:08.746Z,23.37
2019-05-18T21:04:40.491Z,23.80
2019-05-18T21:07:13.335Z,24.37
2019-05-18T21:09:45.843Z,24.97
2019-05-18T21:12:19.791Z,26.33
2019-05-18T21:14:54.250Z,28.10
2019-05-18T21:17:26.966Z,26.03
2019-05-18T21:19:59.668Z,23.57
2019-05-18T21:22:31.240Z,23.77
2019-05-18T21:25:03.622Z,23.07
2019-05-18T21:27:36.017Z,21.93
2019-05-18T21:30:07.967Z,20.10
2019-05-18T21:32:41.204Z,16.27
2019-05-18T21:35:12.851Z,19.47
2019-05-18T21:37:46.062Z,19.40
2019-05-18T21:40:17.645Z,18.70
2019-05-18T21:42:49.646Z,19.37
2019-05-18T21:45:20.742Z,18.97
2019-05-18T21:47:53.154Z,19.03
2019-05-18T21:50:27.199Z,19.37
2019-05-18T21:52:59.076Z,18.77
2019-05-18T21:55:31.787Z,18.07
2019-05-18T21:58:04.176Z,19.00
2019-05-18T22:00:36.657Z,17.10
2019-05-18T22:03:08.098Z,17.53
2019-05-18T22:05:39.971Z,17.10
2019-05-18T22:08:12.446Z,17.77
2019-05-18T22:10:44.213Z,16.73
2019-05-18T22:13:18.358Z,14.80
2019-05-18T22:15:51.178Z,16.43
2019-05-18T22:18:24.943Z,16.03
2019-05-18T22:20:57.450Z,16.00
2019-05-18T22:23:29.219Z,16.53
2019-05-18T22:26:02.131Z,16.23
2019-05-18T22:28:34.762Z,16.67
2019-05-18T22:31:06.674Z,17.90
2019-05-18T22:33:41.214Z,17.63
2019-05-18T22:36:13.862Z,18.03
2019-05-18T22:38:46.654Z,17.50
2019-05-18T22:41:19.090Z,16.13
2019-05-18T22:43:51.349Z,18.40
2019-05-18T22:46:23.218Z,19.07
2019-05-18T22:48:55.032Z,18.90
2019-05-18T22:51:26.469Z,18.87
2019-05-18T22:54:00.822Z,16.90
2019-05-18T22:56:32.826Z,14.87
2019-05-18T22:59:05.534Z,14.77
2019-05-18T23:01:38.385Z,15.43
2019-05-18T23:04:10.288Z,16.83
2019-05-18T23:06:44.033Z,17.47
2019-05-18T23:09:21.007Z,17.33
2019-05-18T23:11:55.087Z,18.47
2019-05-18T23:14:26.566Z,18.23
2019-05-18T23:16:58.903Z,18.70
2019-05-18T23:19:30.676Z,19.50
2019-05-18T23:22:03.567Z,19.40
2019-05-18T23:24:35.422Z,19.50
2019-05-18T23:27:09.933Z,20.03
2019-05-18T23:29:41.908Z,21.63
2019-05-18T23:32:16.192Z,22.43
2019-05-18T23:34:47.639Z,22.90
2019-05-18T23:37:20.251Z,21.70
2019-05-18T23:39:53.138Z,23.83
2019-05-18T23:42:29.931Z,24.43
2019-05-18T23:45:02.652Z,24.77
2019-05-18T23:47:34.171Z,25.97
2019-05-18T23:50:07.490Z,26.60
2019-05-18T23:52:38.958Z,23.97
2019-05-18T23:55:13.033Z,27.27
2019-05-18T23:57:45.390Z,27.83
